Time;durP1;ratioP1;P1;durP2;ratioP2;P2;SDS_P1;SDS_P2;PMS_P1;PMS_P2;Temp;Humidity;BMP_temperature;BMP_pressure;BME280_temperature;BME280_humidity;BME280_pressure;Samples;Min_cycle;Max_cycle;Signal;HPM_P1;HPM_P2
2022/08/06 00:00:09;;;;;;;20.72;13.25;;;;;;;17.22;85.94;94567.88;1675438;84;21011;-53
2022/08/06 00:02:41;;;;;;;21.40;13.22;;;;;;;17.19;85.96;94566.70;1654937;85;21220;-53
2022/08/06 00:05:09;;;;;;;16.87;11.88;;;;;;;17.16;86.07;94574.64;1676654;84;21023;-53
2022/08/06 00:07:38;;;;;;;18.05;12.23;;;;;;;17.12;86.26;94572.72;1679699;84;20969;-54
2022/08/06 00:10:07;;;;;;;20.62;11.75;;;;;;;17.11;86.43;94565.64;1662816;85;20995;-54
2022/08/06 00:12:36;;;;;;;22.73;12.13;;;;;;;17.06;86.55;94569.14;1681057;84;21045;-54
2022/08/06 00:15:05;;;;;;;19.98;13.55;;;;;;;17.03;86.91;94570.11;1691289;84;21006;-53
2022/08/06 00:17:33;;;;;;;18.73;12.05;;;;;;;17.02;87.59;94568.58;1677059;84;21043;-53
2022/08/06 00:20:02;;;;;;;17.37;12.10;;;;;;;17.01;87.60;94569.23;1667176;85;21257;-53
2022/08/06 00:22:32;;;;;;;23.50;12.90;;;;;;;16.95;87.44;94571.81;1664809;85;21039;-54
2022/08/06 00:25:00;;;;;;;20.05;11.75;;;;;;;16.87;87.61;94576.30;1656951;85;21622;-53
2022/08/06 00:27:29;;;;;;;20.60;11.50;;;;;;;16.86;87.83;94577.53;1668483;85;21039;-53
2022/08/06 00:29:57;;;;;;;17.42;12.45;;;;;;;16.81;87.76;94572.69;1663507;85;21075;-53
2022/08/06 00:32:25;;;;;;;17.32;12.60;;;;;;;16.80;87.78;94576.73;1675649;85;21230;-53
2022/08/06 00:34:52;;;;;;;18.27;12.78;;;;;;;16.78;87.75;94580.63;1675463;85;21408;-53
2022/08/06 00:37:20;;;;;;;16.35;12.28;;;;;;;16.74;87.72;94577.31;1656335;85;21069;-53
2022/08/06 00:39:49;;;;;;;15.60;12.23;;;;;;;16.71;87.73;94569.96;1666480;85;21011;-53
2022/08/06 00:42:18;;;;;;;20.12;11.65;;;;;;;16.71;88.07;94569.31;1673473;84;21507;-54
2022/08/06 00:44:46;;;;;;;15.93;11.88;;;;;;;16.74;87.83;94568.98;1665441;84;21957;-53
2022/08/06 00:47:14;;;;;;;15.40;11.85;;;;;;;16.71;87.95;94576.91;1667456;84;21042;-53
2022/08/06 00:49:42;;;;;;;18.55;11.55;;;;;;;16.70;88.51;94580.94;1687871;84;20995;-53
2022/08/06 00:52:11;;;;;;;14.80;12.37;;;;;;;16.66;88.54;94585.93;1689110;84;21455;-53
2022/08/06 00:54:39;;;;;;;20.08;11.85;;;;;;;16.61;88.59;94585.25;1688520;84;21431;-54
2022/08/06 00:57:07;;;;;;;18.82;12.58;;;;;;;16.56;88.73;94583.19;1680355;84;21948;-54
2022/08/06 00:59:36;;;;;;;25.52;13.78;;;;;;;16.53;88.75;94581.39;1652775;85;21003;-53
2022/08/06 01:02:04;;;;;;;19.15;12.45;;;;;;;16.49;88.46;94583.59;1686093;84;21180;-53
2022/08/06 01:04:32;;;;;;;31.12;13.75;;;;;;;16.42;88.30;94581.27;1675485;84;21617;-54
2022/08/06 01:07:00;;;;;;;32.53;15.20;;;;;;;16.38;88.58;94584.88;1656272;85;20983;-53
2022/08/06 01:09:29;;;;;;;25.62;14.55;;;;;;;16.34;88.96;94577.37;1678487;84;21399;-54
2022/08/06 01:11:58;;;;;;;33.48;15.60;;;;;;;16.34;89.32;94579.53;1672501;84;21012;-52
2022/08/06 01:14:26;;;;;;;31.65;15.13;;;;;;;16.32;89.54;94582.01;1663918;85;21010;-54
2022/08/06 01:17:01;;;;;;;27.22;14.68;;;;;;;16.32;89.75;94580.63;1689053;84;21031;-54
2022/08/06 01:19:57;;;;;;;22.07;13.80;;;;;;;16.30;89.77;94574.80;1681313;84;21117;-54
2022/08/06 01:23:08;;;;;;;31.17;13.30;;;;;;;16.29;90.00;94576.05;1688848;84;21347;-53
2022/08/06 01:26:21;;;;;;;21.68;14.00;;;;;;;16.29;89.82;94584.38;1673220;84;21058;-53
2022/08/06 01:29:06;;;;;;;22.50;14.23;;;;;;;16.25;89.82;94576.11;1665425;85;20991;-53
2022/08/06 01:31:50;;;;;;;25.70;13.25;;;;;;;16.19;89.95;94576.69;1661405;85;21003;-54
2022/08/06 01:34:26;;;;;;;19.95;11.88;;;;;;;16.13;90.19;94580.00;1664960;84;21424;-52
2022/08/06 01:36:59;;;;;;;20.75;13.10;;;;;;;16.04;90.40;94571.05;1653102;85;21164;-53
2022/08/06 01:39:27;;;;;;;;;;;;;;;15.96;90.61;94579.06;1684500;84;21015;-53
2022/08/06 01:41:54;;;;;;;18.42;12.60;;;;;;;15.90;91.09;94574.69;1651695;85;20189;-54
2022/08/06 01:44:24;;;;;;;20.82;13.45;;;;;;;15.79;91.24;94570.38;1652493;85;21722;-53
2022/08/06 01:46:54;;;;;;;15.55;11.22;;;;;;;15.69;91.23;94568.99;1645091;86;20972;-53
2022/08/06 01:49:25;;;;;;;20.72;12.15;;;;;;;15.60;91.33;94567.11;1675846;84;21138;-53
2022/08/06 01:51:54;;;;;;;18.02;12.28;;;;;;;15.54;91.54;94567.63;1685475;84;21454;-53
2022/08/06 01:54:22;;;;;;;15.32;12.28;;;;;;;15.53;91.95;94575.81;1676334;84;20990;-52
2022/08/06 01:56:53;;;;;;;15.72;12.28;;;;;;;15.55;92.22;94576.09;1661782;85;21096;-53
2022/08/06 01:59:23;;;;;;;23.22;13.45;;;;;;;15.61;92.24;94572.02;1677272;85;21047;-53
2022/08/06 02:01:54;;;;;;;17.42;12.55;;;;;;;15.60;91.97;94576.81;1673137;84;21196;-53
2022/08/06 02:04:24;;;;;;;18.07;12.35;;;;;;;15.58;92.14;94573.73;1689510;84;20973;-53
2022/08/06 02:06:52;;;;;;;18.87;11.57;;;;;;;15.57;92.23;94570.82;1666174;84;21535;-54
2022/08/06 02:09:21;;;;;;;22.25;13.30;;;;;;;15.56;92.31;94573.45;1647815;84;21446;-54
2022/08/06 02:11:54;;;;;;;22.82;13.83;;;;;;;15.58;92.17;94572.34;1684303;84;21057;-53
2022/08/06 02:14:21;;;;;;;18.45;12.85;;;;;;;15.60;92.06;94564.34;1671584;85;21154;-53
2022/08/06 02:16:50;;;;;;;20.40;12.43;;;;;;;15.60;91.64;94562.95;1646661;85;21031;-53
2022/08/06 02:19:18;;;;;;;20.12;12.40;;;;;;;15.60;91.35;94568.49;1683991;84;21023;-54
2022/08/06 02:21:47;;;;;;;21.05;12.58;;;;;;;15.59;90.82;94557.27;1679853;84;22153;-52
2022/08/06 02:24:15;;;;;;;21.07;12.78;;;;;;;15.59;90.68;94559.26;1668150;84;21526;-53
2022/08/06 02:26:43;;;;;;;23.52;13.25;;;;;;;15.57;90.59;94561.12;1662844;85;21100;-52
2022/08/06 02:29:14;;;;;;;13.80;12.10;;;;;;;15.58;90.68;94558.48;1677890;84;20971;-52
2022/08/06 02:31:43;;;;;;;18.62;12.45;;;;;;;15.58;90.57;94561.25;1669571;85;20982;-53
2022/08/06 02:34:11;;;;;;;13.20;11.80;;;;;;;15.58;90.12;94565.41;1668052;85;20964;-53
2022/08/06 02:36:44;;;;;;;16.87;12.78;;;;;;;15.57;89.93;94558.98;1680194;84;20975;-53
2022/08/06 02:39:25;;;;;;;16.93;13.18;;;;;;;15.55;89.96;94567.02;1689622;84;22560;-52
2022/08/06 02:42:21;;;;;;;22.02;13.18;;;;;;;15.52;90.07;94565.97;1684844;84;21609;-53
2022/08/06 02:45:00;;;;;;;12.85;11.12;;;;;;;15.49;89.68;94560.62;1679146;84;20984;-53
2022/08/06 02:47:51;;;;;;;20.35;12.00;;;;;;;15.42;89.74;94567.36;1685654;84;21162;-53
2022/08/06 02:50:21;;;;;;;20.68;12.33;;;;;;;15.39;90.15;94569.68;1671576;84;21034;-54
2022/08/06 02:52:54;;;;;;;18.65;12.23;;;;;;;15.40;90.97;94576.00;1663120;84;21240;-53
2022/08/06 02:55:25;;;;;;;21.80;12.85;;;;;;;15.40;91.21;94571.84;1678891;84;20995;-53
2022/08/06 02:57:56;;;;;;;22.25;11.28;;;;;;;15.33;91.25;94571.62;1679312;84;20967;-53
2022/08/06 03:00:24;;;;;;;16.62;11.12;;;;;;;15.28;91.69;94575.66;1665568;85;21070;-53
2022/08/06 03:02:56;;;;;;;16.42;12.70;;;;;;;15.26;91.88;94580.31;1663237;84;21016;-53
2022/08/06 03:05:23;;;;;;;24.75;12.20;;;;;;;15.19;91.85;94586.23;1645212;85;21316;-53
2022/08/06 03:07:52;;;;;;;25.20;12.33;;;;;;;15.14;92.22;94589.69;1613242;87;20985;-54
2022/08/06 03:10:21;;;;;;;21.62;12.28;;;;;;;15.13;92.23;94588.77;1640672;85;20957;-53
2022/08/06 03:12:49;;;;;;;22.02;11.60;;;;;;;15.13;92.28;94584.61;1655004;85;20991;-53
2022/08/06 03:15:18;;;;;;;27.20;13.05;;;;;;;15.16;92.35;94589.97;1664123;84;21619;-53
2022/08/06 03:17:46;;;;;;;27.95;12.68;;;;;;;15.17;92.34;94593.52;1655184;85;21110;-52
2022/08/06 03:20:18;;;;;;;24.82;12.40;;;;;;;15.18;92.55;94593.66;1676198;84;21030;-53
2022/08/06 03:22:49;;;;;;;13.58;11.25;;;;;;;15.22;92.70;94596.35;1654420;85;21068;-53
2022/08/06 03:25:18;;;;;;;20.77;12.28;;;;;;;15.26;92.17;94591.39;1613128;87;21037;-53
2022/08/06 03:27:47;;;;;;;15.98;10.60;;;;;;;15.29;91.70;94598.00;1672976;84;21050;-54
2022/08/06 03:30:17;;;;;;;22.75;13.20;;;;;;;15.31;91.44;94600.44;1678752;84;21814;-53
2022/08/06 03:32:45;;;;;;;19.20;13.70;;;;;;;15.33;91.38;94596.56;1687077;84;21597;-52
2022/08/06 03:35:14;;;;;;;23.80;13.28;;;;;;;15.33;91.29;94599.34;1684458;84;21106;-54
2022/08/06 03:37:43;;;;;;;21.30;13.22;;;;;;;15.32;91.30;94607.51;1663205;85;21502;-53
2022/08/06 03:40:11;;;;;;;16.12;11.97;;;;;;;15.32;91.34;94607.51;1669138;85;21447;-53
2022/08/06 03:42:40;;;;;;;25.50;12.20;;;;;;;15.35;91.12;94601.00;1674646;84;21299;-53
2022/08/06 03:45:08;;;;;;;16.10;13.10;;;;;;;15.36;90.92;94601.14;1686609;84;21007;-53
2022/08/06 03:47:44;;;;;;;24.95;13.88;;;;;;;15.37;90.95;94606.08;1673843;84;21019;-53
2022/08/06 03:50:18;;;;;;;15.20;12.93;;;;;;;15.37;91.29;94609.59;1664874;84;21621;-53
2022/08/06 03:52:56;;;;;;;19.10;13.03;;;;;;;15.40;91.32;94609.27;1630329;85;21047;-53
2022/08/06 03:55:26;;;;;;;13.70;11.33;;;;;;;15.41;91.35;94604.64;1683538;84;21129;-53
2022/08/06 03:57:57;;;;;;;18.98;12.60;;;;;;;15.45;91.25;94609.97;1681881;84;21437;-53
2022/08/06 04:00:26;;;;;;;20.30;13.53;;;;;;;15.46;91.18;94608.72;1688556;84;21086;-53
2022/08/06 04:02:54;;;;;;;18.82;13.08;;;;;;;15.52;91.46;94613.75;1675750;84;21026;-53
2022/08/06 04:05:25;;;;;;;22.90;12.65;;;;;;;15.57;91.31;94611.67;1680561;84;21082;-52
2022/08/06 04:08:03;;;;;;;14.78;12.75;;;;;;;15.61;91.06;94613.00;1679155;85;21256;-53
2022/08/06 04:10:36;;;;;;;18.73;12.23;;;;;;;15.65;91.03;94614.95;1648662;85;21142;-53
2022/08/06 04:13:06;;;;;;;24.30;12.70;;;;;;;15.69;90.66;94616.89;1654433;84;21644;-54
2022/08/06 04:15:35;;;;;;;23.47;12.25;;;;;;;15.72;90.85;94616.55;1625728;87;21099;-54
2022/08/06 04:18:05;;;;;;;19.07;11.95;;;;;;;15.75;90.64;94614.95;1675868;84;20987;-53
2022/08/06 04:20:33;;;;;;;19.57;12.47;;;;;;;15.75;90.48;94615.59;1670111;84;21267;-54
2022/08/06 04:23:01;;;;;;;27.40;14.15;;;;;;;15.71;90.37;94607.45;1636483;86;20985;-54
2022/08/06 04:25:32;;;;;;;18.90;14.30;;;;;;;15.77;90.66;94613.09;1648342;85;21107;-54
2022/08/06 04:28:00;;;;;;;31.68;14.45;;;;;;;15.99;90.99;94616.94;1639970;86;21096;-53
2022/08/06 04:30:29;;;;;;;16.85;13.13;;;;;;;16.32;90.44;94619.49;1670233;85;21015;-54
2022/08/06 04:32:57;;;;;;;21.62;13.70;;;;;;;16.65;89.38;94621.91;1657946;86;21101;-54
2022/08/06 04:35:25;;;;;;;23.70;14.33;;;;;;;16.83;88.05;94622.98;1677463;84;21023;-53
2022/08/06 04:37:52;;;;;;;23.10;13.38;;;;;;;16.92;87.14;94620.80;1671567;84;20999;-54
2022/08/06 04:40:20;;;;;;;20.37;14.18;;;;;;;16.98;86.28;94621.63;1658966;84;20995;-53
2022/08/06 04:42:49;;;;;;;20.25;13.85;;;;;;;17.04;85.82;94616.88;1662778;86;21040;-53
2022/08/06 04:45:16;;;;;;;26.90;15.20;;;;;;;17.02;85.42;94607.50;1657054;85;21269;-54
2022/08/06 04:47:44;;;;;;;33.00;16.05;;;;;;;16.98;85.47;94615.30;1672165;84;21051;-53
2022/08/06 04:50:12;;;;;;;23.00;13.72;;;;;;;16.96;85.48;94614.41;1680512;84;21015;-53
2022/08/06 04:52:40;;;;;;;21.25;13.90;;;;;;;16.99;85.59;94605.70;1663375;85;21003;-54
2022/08/06 04:55:09;;;;;;;23.20;14.38;;;;;;;17.02;85.79;94609.66;1673237;84;21037;-54
2022/08/06 04:57:37;;;;;;;25.25;15.43;;;;;;;17.07;85.66;94605.41;1652841;85;21835;-53
2022/08/06 05:00:06;;;;;;;21.77;14.75;;;;;;;17.09;85.67;94607.07;1660566;85;21038;-53
2022/08/06 05:02:33;;;;;;;26.48;13.43;;;;;;;17.04;85.63;94608.55;1680608;84;21041;-53
2022/08/06 05:05:01;;;;;;;27.37;15.83;;;;;;;17.05;85.88;94607.90;1682953;84;21051;-53
2022/08/06 05:07:30;;;;;;;17.73;14.78;;;;;;;17.08;85.84;94606.94;1634070;85;21486;-53
2022/08/06 05:09:59;;;;;;;16.55;14.58;;;;;;;17.12;85.76;94607.47;1652569;85;21574;-54
2022/08/06 05:12:38;;;;;;;18.35;14.00;;;;;;;17.16;85.70;94599.05;1649674;85;21018;-53
2022/08/06 05:15:15;;;;;;;19.50;14.00;;;;;;;17.21;85.58;94605.89;1688806;84;21019;-53
2022/08/06 05:17:47;;;;;;;21.55;14.47;;;;;;;17.29;85.67;94606.34;1681284;84;21247;-53
2022/08/06 05:20:19;;;;;;;23.77;12.70;;;;;;;17.42;85.28;94599.03;1666457;85;21019;-53
2022/08/06 05:22:49;;;;;;;25.92;14.47;;;;;;;17.53;84.82;94604.05;1681644;84;21323;-54
2022/08/06 05:25:29;;;;;;;27.98;13.93;;;;;;;17.62;84.16;94601.70;1658466;85;21157;-57
2022/08/06 05:28:01;;;;;;;27.48;13.62;;;;;;;17.73;83.70;94598.98;1652624;85;20992;-57
2022/08/06 05:30:32;;;;;;;23.22;13.75;;;;;;;17.83;83.36;94595.50;1655650;85;21192;-57
2022/08/06 05:33:00;;;;;;;30.40;14.55;;;;;;;17.94;82.72;94596.19;1628527;85;21027;-54
2022/08/06 05:35:29;;;;;;;20.90;12.18;;;;;;;18.02;82.47;94594.48;1644711;85;21301;-54
2022/08/06 05:37:57;;;;;;;34.67;14.43;;;;;;;18.13;82.11;94591.11;1650763;85;21074;-53
2022/08/06 05:40:33;;;;;;;28.50;15.95;;;;;;;18.25;81.89;94584.34;1620238;87;21096;-54
2022/08/06 05:42:56;;;;;;;21.68;15.40;;;;;;;18.41;81.73;94589.99;1645736;85;21035;-54
2022/08/06 05:45:24;;;;;;;15.90;12.88;;;;;;;18.61;81.29;94590.45;1658703;85;21110;-53
2022/08/06 05:47:54;;;;;;;20.57;14.20;;;;;;;18.71;80.05;94585.53;1661232;85;21200;-53
2022/08/06 05:50:26;;;;;;;15.55;12.55;;;;;;;18.77;79.48;94577.94;1674891;84;20963;-54
2022/08/06 05:52:59;;;;;;;19.43;12.00;;;;;;;18.83;78.99;94581.48;1690167;85;21070;-54
2022/08/06 05:55:30;;;;;;;;;;;;;;;18.88;78.62;94583.54;1668737;84;21534;-55
2022/08/06 05:58:01;;;;;;;19.30;11.95;;;;;;;18.96;78.34;94577.58;1663788;85;20449;-56
2022/08/06 06:00:31;;;;;;;19.92;11.88;;;;;;;19.04;78.08;94581.37;1649044;85;21193;-55
2022/08/06 06:03:03;;;;;;;22.62;12.95;;;;;;;19.14;77.93;94572.13;1648203;84;20981;-53
2022/08/06 06:05:31;;;;;;;20.32;13.43;;;;;;;19.25;77.61;94577.14;1691310;84;21010;-53
2022/08/06 06:07:59;;;;;;;24.32;13.58;;;;;;;19.38;77.33;94575.97;1653846;85;21515;-53
2022/08/06 06:10:26;;;;;;;17.40;12.60;;;;;;;19.50;76.90;94577.50;1655431;85;21545;-54
2022/08/06 06:12:56;;;;;;;19.98;12.00;;;;;;;19.61;76.27;94569.75;1678109;84;21158;-54
2022/08/06 06:15:23;;;;;;;39.73;20.27;;;;;;;19.72;75.95;94569.09;1674826;85;21468;-53
2022/08/06 06:18:06;;;;;;;27.77;13.98;;;;;;;19.85;75.35;94569.95;1645500;85;21093;-53
2022/08/06 06:21:03;;;;;;;20.30;12.47;;;;;;;19.96;74.76;94566.48;1675193;84;21100;-57
2022/08/06 06:23:57;;;;;;;24.10;12.78;;;;;;;20.10;74.11;94572.45;1673732;84;21438;-54
2022/08/06 06:26:41;;;;;;;16.17;10.25;;;;;;;20.24;73.66;94570.00;1650435;85;23238;-54
2022/08/06 06:29:41;;;;;;;14.07;10.98;;;;;;;20.41;73.16;94572.09;1626762;87;20977;-53
2022/08/06 06:32:36;;;;;;;13.75;11.18;;;;;;;20.55;72.57;94564.77;1664034;85;21013;-54
2022/08/06 06:35:24;;;;;;;16.35;10.90;;;;;;;20.72;71.87;94564.70;1622831;88;21055;-55
2022/08/06 06:38:22;;;;;;;12.85;10.32;;;;;;;20.86;71.19;94558.01;1679967;85;20975;-54
2022/08/06 06:41:09;;;;;;;14.58;9.78;;;;;;;21.04;70.58;94557.38;1666567;85;21294;-55
2022/08/06 06:44:02;;;;;;;17.73;11.30;;;;;;;21.22;70.00;94554.72;1628682;87;21084;-53
2022/08/06 06:46:53;;;;;;;17.90;11.55;;;;;;;21.35;69.22;94554.10;1653070;84;20988;-54
2022/08/06 06:49:29;;;;;;;16.85;10.35;;;;;;;21.44;68.61;94545.39;1657582;85;21184;-55
2022/08/06 06:52:13;;;;;;;14.25;9.50;;;;;;;21.54;68.02;94550.13;1659418;85;21536;-54
2022/08/06 06:54:45;;;;;;;12.75;10.05;;;;;;;21.67;67.52;94548.12;1655700;86;21174;-54
2022/08/06 06:57:16;;;;;;;19.43;11.40;;;;;;;21.81;67.09;94539.31;1654532;85;21444;-55
2022/08/06 06:59:45;;;;;;;12.93;10.07;;;;;;;21.94;66.72;94538.04;1672380;85;21030;-55
2022/08/06 07:02:18;;;;;;;15.83;10.45;;;;;;;22.04;66.59;94541.36;1660697;85;21483;-54
2022/08/06 07:04:46;;;;;;;;;;;;;;;22.15;66.46;94540.48;1695258;84;21018;-54
2022/08/06 07:07:14;;;;;;;19.98;10.78;;;;;;;22.30;66.19;94537.34;1679449;84;21845;-54
2022/08/06 07:09:43;;;;;;;13.43;10.25;;;;;;;22.45;66.04;94539.11;1645182;85;20967;-55
2022/08/06 07:12:15;;;;;;;17.50;10.48;;;;;;;22.59;65.47;94535.11;1637917;85;21137;-54
2022/08/06 07:14:45;;;;;;;12.70;10.25;;;;;;;22.69;65.03;94529.22;1682979;85;21023;-54
2022/08/06 07:17:13;;;;;;;13.98;10.18;;;;;;;22.81;64.62;94531.25;1679820;84;21085;-54
2022/08/06 07:19:41;;;;;;;16.62;10.93;;;;;;;22.92;63.99;94526.23;1655332;85;22059;-56
2022/08/06 07:22:10;;;;;;;14.30;10.98;;;;;;;23.04;64.23;94523.34;1645212;85;20979;-54
2022/08/06 07:24:38;;;;;;;12.73;10.03;;;;;;;23.17;64.30;94519.23;1656576;85;21075;-53
2022/08/06 07:27:06;;;;;;;16.50;9.60;;;;;;;23.30;63.18;94519.28;1648389;86;21022;-55
2022/08/06 07:29:35;;;;;;;13.62;9.75;;;;;;;23.40;62.83;94521.04;1662451;84;21031;-54
2022/08/06 07:32:04;;;;;;;14.13;8.75;;;;;;;23.52;62.61;94520.31;1657973;85;21452;-57
2022/08/06 07:34:32;;;;;;;17.00;10.95;;;;;;;23.66;62.63;94519.05;1647175;86;21089;-55
2022/08/06 07:37:00;;;;;;;15.72;12.80;;;;;;;23.80;62.56;94519.82;1646238;84;20982;-55
2022/08/06 07:39:32;;;;;;;11.65;9.90;;;;;;;23.92;62.43;94523.32;1649173;85;21031;-54
2022/08/06 07:42:03;;;;;;;13.45;9.95;;;;;;;24.06;62.00;94515.01;1606087;87;26923;-54
2022/08/06 07:44:32;;;;;;;11.45;9.10;;;;;;;24.19;61.70;94512.20;1662483;84;21111;-54
2022/08/06 07:47:00;;;;;;;11.40;8.68;;;;;;;24.32;61.56;94514.36;1657078;84;21101;-55
2022/08/06 07:49:36;;;;;;;16.80;9.35;;;;;;;24.47;61.19;94506.75;1677297;84;21034;-54
2022/08/06 07:52:05;;;;;;;10.88;7.90;;;;;;;24.61;61.24;94508.28;1670449;85;21050;-55
2022/08/06 07:54:33;;;;;;;9.38;7.92;;;;;;;24.80;60.75;94502.62;1682353;84;20962;-54
2022/08/06 07:57:01;;;;;;;8.65;7.75;;;;;;;24.99;59.36;94510.25;1640929;85;21141;-55
2022/08/06 07:59:29;;;;;;;9.43;8.35;;;;;;;25.13;59.26;94509.54;1669128;85;21012;-54
2022/08/06 08:01:58;;;;;;;8.10;7.28;;;;;;;25.31;59.37;94510.03;1662420;85;21022;-54
2022/08/06 08:07:12;;;;;;;14.65;7.87;;;;;;;25.61;58.14;94506.83;1660060;84;20971;-54
2022/08/06 08:09:41;;;;;;;8.53;7.62;;;;;;;25.79;57.85;94510.08;1653510;85;21105;-56
2022/08/06 08:12:12;;;;;;;9.43;7.58;;;;;;;25.92;57.37;94504.39;1676227;84;21515;-54
2022/08/06 08:14:41;;;;;;;10.18;7.37;;;;;;;26.06;56.38;94509.38;1665373;84;21039;-54
2022/08/06 08:17:10;;;;;;;9.90;7.37;;;;;;;26.21;56.82;94503.06;1655593;85;21469;-55
2022/08/06 08:19:38;;;;;;;14.58;7.25;;;;;;;26.35;56.22;94498.19;1678102;84;21023;-55
2022/08/06 08:22:09;;;;;;;13.60;7.10;;;;;;;26.51;55.54;94500.45;1656891;85;21160;-54
2022/08/06 08:24:38;;;;;;;9.43;5.92;;;;;;;26.64;55.03;94505.30;1674901;85;21020;-54
2022/08/06 08:27:09;;;;;;;10.90;6.22;;;;;;;26.80;53.08;94504.70;1659602;85;21058;-55
2022/08/06 08:29:38;;;;;;;9.93;6.40;;;;;;;26.91;52.52;94504.38;1638289;86;21024;-55
2022/08/06 08:32:08;;;;;;;10.98;7.53;;;;;;;26.93;52.53;94499.69;1643088;85;21023;-54
2022/08/06 08:34:36;;;;;;;8.33;6.55;;;;;;;26.95;53.33;94508.35;1673365;85;21123;-55
2022/08/06 08:37:04;;;;;;;9.38;7.00;;;;;;;27.07;51.25;94512.33;1651591;85;21540;-55
2022/08/06 08:39:33;;;;;;;7.05;6.35;;;;;;;27.17;50.88;94511.92;1640254;86;20968;-55
2022/08/06 08:42:08;;;;;;;6.95;6.28;;;;;;;27.21;50.95;94505.91;1656010;85;20996;-55
2022/08/06 08:44:36;;;;;;;7.55;6.45;;;;;;;27.27;51.32;94504.43;1664569;85;21067;-55
2022/08/06 08:47:04;;;;;;;6.80;6.12;;;;;;;27.36;51.18;94503.13;1688519;84;21131;-55
2022/08/06 08:49:54;;;;;;;12.95;7.12;;;;;;;27.50;51.04;94508.03;1688901;84;20976;-54
2022/08/06 08:52:29;;;;;;;11.73;7.22;;;;;;;27.65;51.18;94508.05;1688626;84;20974;-54
2022/08/06 08:55:01;;;;;;;8.20;6.55;;;;;;;27.81;50.23;94499.67;1683330;84;21006;-54
2022/08/06 08:57:29;;;;;;;12.80;7.00;;;;;;;27.91;49.92;94500.63;1675466;85;21046;-57
2022/08/06 08:59:57;;;;;;;8.18;6.53;;;;;;;28.02;49.87;94505.91;1669132;85;21283;-54
2022/08/06 09:02:26;;;;;;;8.48;6.72;;;;;;;28.17;50.39;94498.80;1673646;84;21183;-55
2022/08/06 09:04:54;;;;;;;6.53;5.92;;;;;;;28.33;50.20;94498.90;1694615;84;21116;-54
2022/08/06 09:07:22;;;;;;;12.60;7.28;;;;;;;28.46;48.28;94494.44;1683219;84;21097;-55
2022/08/06 09:09:50;;;;;;;9.85;6.03;;;;;;;28.54;47.46;94502.23;1678192;84;20987;-53
2022/08/06 09:12:19;;;;;;;9.00;6.75;;;;;;;28.57;47.26;94503.95;1664222;85;21312;-55
2022/08/06 09:14:47;;;;;;;7.90;6.85;;;;;;;28.63;47.04;94496.77;1685590;84;21011;-55
2022/08/06 09:17:15;;;;;;;10.63;6.85;;;;;;;28.73;46.91;94499.75;1671277;84;21157;-55
2022/08/06 09:19:43;;;;;;;8.10;5.62;;;;;;;28.85;46.59;94500.81;1684772;84;20971;-55
2022/08/06 09:22:11;;;;;;;7.35;5.62;;;;;;;29.02;47.08;94496.71;1666004;84;21009;-54
2022/08/06 09:24:39;;;;;;;6.55;5.95;;;;;;;29.22;46.53;94499.91;1687016;84;21451;-55
2022/08/06 09:27:14;;;;;;;7.42;5.95;;;;;;;29.37;46.58;94499.83;1664534;85;21003;-54
2022/08/06 09:29:57;;;;;;;6.42;5.35;;;;;;;29.44;46.71;94501.85;1690504;84;21023;-55
2022/08/06 09:32:42;;;;;;;9.70;6.37;;;;;;;29.42;44.89;94504.52;1687831;84;21518;-56
2022/08/06 09:35:24;;;;;;;8.30;5.60;;;;;;;29.30;45.56;94501.38;1664250;85;20972;-55
2022/08/06 09:38:02;;;;;;;8.30;6.47;;;;;;;29.17;45.04;94500.89;1680496;84;21220;-56
2022/08/06 09:40:31;;;;;;;7.17;5.70;;;;;;;29.06;45.85;94504.14;1663554;85;21090;-54
2022/08/06 09:43:00;;;;;;;7.28;6.58;;;;;;;29.01;46.16;94505.89;1662030;84;21056;-55
2022/08/06 09:45:29;;;;;;;5.50;5.00;;;;;;;28.96;45.70;94501.17;1659508;85;21003;-55
2022/08/06 09:48:05;;;;;;;9.38;6.05;;;;;;;28.86;45.80;94499.48;1682236;84;21014;-55
2022/08/06 09:50:45;;;;;;;15.65;13.05;;;;;;;28.70;45.94;94500.87;1691228;84;21234;-54
2022/08/06 09:53:14;;;;;;;14.65;7.00;;;;;;;28.56;46.60;94503.19;1672556;85;20970;-54
2022/08/06 09:55:42;;;;;;;6.72;6.00;;;;;;;28.53;46.59;94507.81;1644415;86;21062;-55
2022/08/06 09:58:11;;;;;;;11.48;6.08;;;;;;;28.57;46.86;94498.29;1660154;85;21028;-55
2022/08/06 10:00:38;;;;;;;7.33;5.70;;;;;;;28.82;46.19;94501.97;1670032;84;21031;-55
2022/08/06 10:03:08;;;;;;;11.15;6.58;;;;;;;29.05;46.22;94502.64;1686507;84;21821;-55
2022/08/06 10:05:36;;;;;;;7.72;5.67;;;;;;;29.14;45.00;94498.53;1668832;85;21070;-55
2022/08/06 10:08:10;;;;;;;11.33;6.60;;;;;;;29.13;45.53;94508.36;1666731;84;21248;-54
2022/08/06 10:10:50;;;;;;;8.23;6.53;;;;;;;29.07;45.28;94503.59;1669777;85;21556;-55
2022/08/06 10:13:24;;;;;;;6.87;6.17;;;;;;;29.03;45.61;94508.13;1687786;84;21036;-56
2022/08/06 10:15:54;;;;;;;8.40;7.28;;;;;;;28.96;46.09;94509.67;1678505;84;21449;-54
2022/08/06 10:18:37;;;;;;;8.60;6.33;;;;;;;28.82;46.12;94508.40;1676119;84;21088;-54
2022/08/06 10:21:12;;;;;;;8.45;6.83;;;;;;;28.74;46.29;94510.48;1668514;84;21094;-54
2022/08/06 10:23:41;;;;;;;11.75;7.22;;;;;;;28.70;46.72;94509.36;1676444;83;21092;-54
2022/08/06 10:26:11;;;;;;;7.83;6.58;;;;;;;28.58;46.87;94505.45;1689435;84;21567;-56
2022/08/06 10:28:41;;;;;;;9.28;7.45;;;;;;;28.51;46.92;94500.55;1680954;84;21291;-55
2022/08/06 10:31:11;;;;;;;26.23;9.43;;;;;;;28.83;46.38;94502.82;1694720;84;20950;-54
2022/08/06 10:33:50;;;;;;;9.35;7.12;;;;;;;29.26;45.93;94498.84;1676739;84;21518;-54
2022/08/06 10:36:21;;;;;;;17.95;7.33;;;;;;;29.79;46.23;94495.78;1669604;84;21066;-55
2022/08/06 10:38:50;;;;;;;7.20;6.50;;;;;;;30.44;44.68;94497.86;1678975;84;21027;-54
2022/08/06 10:41:18;;;;;;;14.68;7.08;;;;;;;31.07;43.60;94491.73;1671174;85;21115;-54
2022/08/06 10:43:46;;;;;;;7.65;6.25;;;;;;;31.57;42.53;94496.51;1647036;84;21028;-55
2022/08/06 10:46:19;;;;;;;10.55;6.67;;;;;;;31.93;41.72;94489.43;1661442;85;21025;-54
2022/08/06 10:48:47;;;;;;;7.53;6.83;;;;;;;32.22;40.93;94501.01;1635888;85;21086;-55
2022/08/06 10:51:16;;;;;;;7.30;6.22;;;;;;;32.47;39.54;94494.38;1656116;85;21467;-54
2022/08/06 10:53:45;;;;;;;8.65;6.45;;;;;;;32.79;39.84;94501.12;1666148;84;21884;-55
2022/08/06 10:56:16;;;;;;;7.53;6.50;;;;;;;33.09;38.22;94502.69;1650511;85;21440;-55
2022/08/06 10:58:43;;;;;;;12.95;6.47;;;;;;;33.38;38.29;94498.41;1646220;85;20987;-55
2022/08/06 11:01:29;;;;;;;7.05;6.40;;;;;;;33.80;37.13;94517.16;1599785;88;21000;-55
2022/08/06 11:04:14;;;;;;;10.70;6.47;;;;;;;34.09;36.17;94507.13;1649896;85;21045;-53
2022/08/06 11:07:04;;;;;;;7.65;6.70;;;;;;;33.70;36.43;94510.05;1626576;86;21792;-55
2022/08/06 11:10:08;;;;;;;9.90;6.62;;;;;;;33.18;37.27;94507.63;1640246;86;21030;-54
2022/08/06 11:12:53;;;;;;;9.53;6.30;;;;;;;33.12;37.60;94513.58;1627474;86;21066;-54
2022/08/06 11:15:21;;;;;;;8.65;6.10;;;;;;;33.08;37.70;94514.69;1651020;86;21034;-54
2022/08/06 11:17:55;;;;;;;6.75;6.05;;;;;;;32.92;37.97;94514.25;1648322;85;21109;-54
2022/08/06 11:20:40;;;;;;;6.10;5.30;;;;;;;33.16;37.85;94514.61;1619402;87;21154;-54
2022/08/06 11:23:19;;;;;;;7.70;5.80;;;;;;;33.41;36.72;94511.45;1636429;86;21574;-54
2022/08/06 11:25:54;;;;;;;6.70;6.00;;;;;;;33.36;36.78;94516.11;1651691;86;21065;-55
2022/08/06 11:28:32;;;;;;;8.70;6.20;;;;;;;33.03;37.34;94520.79;1639580;86;21114;-54
2022/08/06 11:31:02;;;;;;;6.83;6.03;;;;;;;32.67;38.32;94515.85;1652203;86;21109;-54
2022/08/06 11:33:38;;;;;;;9.60;6.45;;;;;;;32.34;38.49;94513.31;1617908;86;21131;-54
2022/08/06 11:36:12;;;;;;;12.03;6.10;;;;;;;32.00;39.21;94522.02;1607339;87;21066;-54
2022/08/06 11:38:56;;;;;;;8.07;6.60;;;;;;;31.79;39.93;94517.52;1581184;89;21103;-55
2022/08/06 11:41:29;;;;;;;8.40;6.03;;;;;;;31.54;39.97;94512.66;1646983;86;21153;-54
2022/08/06 11:44:02;;;;;;;6.37;5.75;;;;;;;31.28;40.41;94519.09;1622304;86;21063;-55
2022/08/06 11:46:40;;;;;;;10.95;6.22;;;;;;;31.41;40.85;94509.44;1644755;86;21254;-55